sensor_id;sensor_type;location;lat;lon;timestamp;P1;durP1;ratioP1;P2;durP2;ratioP2
4839;SDS011;2434;48.486;7.964;2024-02-26T00:02:11;3.70;;;1.80;;
4839;SDS011;2434;48.486;7.964;2024-02-26T00:04:40;2.73;;;1.53;;
4839;SDS011;2434;48.486;7.964;2024-02-26T00:07:08;7.20;;;1.60;;
4839;SDS011;2434;48.486;7.964;2024-02-26T00:09:37;3.43;;;1.70;;
4839;SDS011;2434;48.486;7.964;2024-02-26T00:12:05;2.63;;;1.50;;
4839;SDS011;2434;48.486;7.964;2024-02-26T00:14:33;3.27;;;1.40;;
4839;SDS011;2434;48.486;7.964;2024-02-26T00:17:01;3.50;;;1.90;;
4839;SDS011;2434;48.486;7.964;2024-02-26T00:19:30;3.43;;;1.60;;
4839;SDS011;2434;48.486;7.964;2024-02-26T00:21:59;3.20;;;1.30;;
4839;SDS011;2434;48.486;7.964;2024-02-26T00:24:27;2.37;;;1.20;;
4839;SDS011;2434;48.486;7.964;2024-02-26T00:26:55;3.20;;;1.40;;
4839;SDS011;2434;48.486;7.964;2024-02-26T00:29:23;2.50;;;1.57;;
4839;SDS011;2434;48.486;7.964;2024-02-26T00:31:51;3.43;;;1.57;;
4839;SDS011;2434;48.486;7.964;2024-02-26T00:34:19;2.17;;;1.03;;
4839;SDS011;2434;48.486;7.964;2024-02-26T00:36:48;2.77;;;1.20;;
4839;SDS011;2434;48.486;7.964;2024-02-26T00:39:17;2.50;;;1.17;;
4839;SDS011;2434;48.486;7.964;2024-02-26T00:41:45;2.83;;;1.13;;
4839;SDS011;2434;48.486;7.964;2024-02-26T00:44:13;2.63;;;1.47;;
4839;SDS011;2434;48.486;7.964;2024-02-26T00:46:41;1.93;;;0.87;;
4839;SDS011;2434;48.486;7.964;2024-02-26T00:49:09;4.20;;;0.90;;
4839;SDS011;2434;48.486;7.964;2024-02-26T00:51:37;1.87;;;0.70;;
4839;SDS011;2434;48.486;7.964;2024-02-26T00:54:05;2.07;;;1.00;;
4839;SDS011;2434;48.486;7.964;2024-02-26T00:56:35;2.80;;;1.10;;
4839;SDS011;2434;48.486;7.964;2024-02-26T00:59:02;2.47;;;1.37;;
4839;SDS011;2434;48.486;7.964;2024-02-26T01:01:30;1.90;;;0.83;;
4839;SDS011;2434;48.486;7.964;2024-02-26T01:03:58;2.40;;;1.20;;
4839;SDS011;2434;48.486;7.964;2024-02-26T01:06:27;3.57;;;1.83;;
4839;SDS011;2434;48.486;7.964;2024-02-26T01:08:55;11.30;;;1.93;;
4839;SDS011;2434;48.486;7.964;2024-02-26T01:11:23;3.70;;;1.37;;
4839;SDS011;2434;48.486;7.964;2024-02-26T01:13:53;3.63;;;1.60;;
4839;SDS011;2434;48.486;7.964;2024-02-26T01:16:23;2.53;;;1.30;;
4839;SDS011;2434;48.486;7.964;2024-02-26T01:18:51;2.93;;;1.40;;
4839;SDS011;2434;48.486;7.964;2024-02-26T01:21:19;4.13;;;1.30;;
4839;SDS011;2434;48.486;7.964;2024-02-26T01:23:47;2.30;;;1.27;;
4839;SDS011;2434;48.486;7.964;2024-02-26T01:26:15;4.50;;;1.10;;
4839;SDS011;2434;48.486;7.964;2024-02-26T01:28:43;2.03;;;0.90;;
4839;SDS011;2434;48.486;7.964;2024-02-26T01:31:13;2.17;;;1.13;;
4839;SDS011;2434;48.486;7.964;2024-02-26T01:33:41;1.60;;;0.90;;
4839;SDS011;2434;48.486;7.964;2024-02-26T01:36:09;2.37;;;1.03;;
4839;SDS011;2434;48.486;7.964;2024-02-26T01:38:37;1.80;;;0.90;;
4839;SDS011;2434;48.486;7.964;2024-02-26T01:41:05;2.00;;;1.00;;
4839;SDS011;2434;48.486;7.964;2024-02-26T01:43:33;2.00;;;0.70;;
4839;SDS011;2434;48.486;7.964;2024-02-26T01:46:01;5.00;;;0.87;;
4839;SDS011;2434;48.486;7.964;2024-02-26T01:48:32;1.50;;;0.70;;
4839;SDS011;2434;48.486;7.964;2024-02-26T01:51:00;2.23;;;0.77;;
4839;SDS011;2434;48.486;7.964;2024-02-26T01:53:28;2.10;;;0.80;;
4839;SDS011;2434;48.486;7.964;2024-02-26T01:55:57;3.20;;;0.80;;
4839;SDS011;2434;48.486;7.964;2024-02-26T01:58:25;3.00;;;0.90;;
4839;SDS011;2434;48.486;7.964;2024-02-26T02:00:54;1.90;;;0.90;;
4839;SDS011;2434;48.486;7.964;2024-02-26T02:03:22;1.80;;;0.70;;
4839;SDS011;2434;48.486;7.964;2024-02-26T02:05:52;1.80;;;0.73;;
4839;SDS011;2434;48.486;7.964;2024-02-26T02:08:20;2.03;;;0.97;;
4839;SDS011;2434;48.486;7.964;2024-02-26T02:10:50;1.63;;;0.80;;
4839;SDS011;2434;48.486;7.964;2024-02-26T02:13:18;1.97;;;0.80;;
4839;SDS011;2434;48.486;7.964;2024-02-26T02:15:46;3.03;;;0.70;;
4839;SDS011;2434;48.486;7.964;2024-02-26T02:18:14;1.27;;;0.60;;
4839;SDS011;2434;48.486;7.964;2024-02-26T02:20:44;1.80;;;0.70;;
4839;SDS011;2434;48.486;7.964;2024-02-26T02:23:12;1.70;;;0.70;;
4839;SDS011;2434;48.486;7.964;2024-02-26T02:25:40;1.30;;;0.60;;
4839;SDS011;2434;48.486;7.964;2024-02-26T02:28:08;1.57;;;0.60;;
4839;SDS011;2434;48.486;7.964;2024-02-26T02:30:36;2.03;;;0.80;;
4839;SDS011;2434;48.486;7.964;2024-02-26T02:33:06;1.30;;;0.60;;
4839;SDS011;2434;48.486;7.964;2024-02-26T02:35:35;1.40;;;0.60;;
4839;SDS011;2434;48.486;7.964;2024-02-26T02:38:04;2.03;;;0.83;;
4839;SDS011;2434;48.486;7.964;2024-02-26T02:40:33;1.67;;;0.80;;
4839;SDS011;2434;48.486;7.964;2024-02-26T02:43:01;2.03;;;1.23;;
4839;SDS011;2434;48.486;7.964;2024-02-26T02:45:29;4.47;;;0.90;;
4839;SDS011;2434;48.486;7.964;2024-02-26T02:47:57;2.47;;;1.13;;
4839;SDS011;2434;48.486;7.964;2024-02-26T02:50:25;2.53;;;1.00;;
4839;SDS011;2434;48.486;7.964;2024-02-26T02:52:52;1.87;;;0.90;;
4839;SDS011;2434;48.486;7.964;2024-02-26T02:55:21;2.27;;;1.03;;
4839;SDS011;2434;48.486;7.964;2024-02-26T02:57:49;2.70;;;1.03;;
4839;SDS011;2434;48.486;7.964;2024-02-26T03:00:17;2.23;;;1.03;;
4839;SDS011;2434;48.486;7.964;2024-02-26T03:02:46;3.60;;;1.10;;
4839;SDS011;2434;48.486;7.964;2024-02-26T03:05:14;2.23;;;1.10;;
4839;SDS011;2434;48.486;7.964;2024-02-26T03:07:42;2.23;;;1.10;;
4839;SDS011;2434;48.486;7.964;2024-02-26T03:10:10;2.40;;;1.10;;
4839;SDS011;2434;48.486;7.964;2024-02-26T03:12:40;3.10;;;1.50;;
4839;SDS011;2434;48.486;7.964;2024-02-26T03:15:08;1.83;;;0.80;;
4839;SDS011;2434;48.486;7.964;2024-02-26T03:17:38;3.90;;;1.27;;
4839;SDS011;2434;48.486;7.964;2024-02-26T03:20:07;2.00;;;0.90;;
4839;SDS011;2434;48.486;7.964;2024-02-26T03:22:38;2.13;;;0.70;;
4839;SDS011;2434;48.486;7.964;2024-02-26T03:25:06;1.50;;;0.80;;
4839;SDS011;2434;48.486;7.964;2024-02-26T03:27:35;2.80;;;0.83;;
4839;SDS011;2434;48.486;7.964;2024-02-26T03:30:05;2.13;;;0.87;;
4839;SDS011;2434;48.486;7.964;2024-02-26T03:32:34;3.83;;;1.20;;
4839;SDS011;2434;48.486;7.964;2024-02-26T03:35:02;2.87;;;1.30;;
4839;SDS011;2434;48.486;7.964;2024-02-26T03:37:30;5.10;;;1.00;;
4839;SDS011;2434;48.486;7.964;2024-02-26T03:39:59;2.60;;;1.10;;
4839;SDS011;2434;48.486;7.964;2024-02-26T03:42:27;1.97;;;0.87;;
4839;SDS011;2434;48.486;7.964;2024-02-26T03:44:55;2.90;;;1.00;;
4839;SDS011;2434;48.486;7.964;2024-02-26T03:47:25;1.70;;;0.77;;
4839;SDS011;2434;48.486;7.964;2024-02-26T03:49:53;2.70;;;0.60;;
4839;SDS011;2434;48.486;7.964;2024-02-26T03:52:20;1.43;;;0.70;;
4839;SDS011;2434;48.486;7.964;2024-02-26T03:54:48;1.67;;;0.70;;
4839;SDS011;2434;48.486;7.964;2024-02-26T03:57:16;1.50;;;0.67;;
4839;SDS011;2434;48.486;7.964;2024-02-26T03:59:44;1.50;;;0.80;;
4839;SDS011;2434;48.486;7.964;2024-02-26T04:02:12;2.03;;;1.00;;
4839;SDS011;2434;48.486;7.964;2024-02-26T04:04:42;3.30;;;0.87;;
4839;SDS011;2434;48.486;7.964;2024-02-26T04:07:10;2.87;;;0.70;;
4839;SDS011;2434;48.486;7.964;2024-02-26T04:09:39;2.73;;;0.90;;
4839;SDS011;2434;48.486;7.964;2024-02-26T04:12:07;1.47;;;0.67;;
4839;SDS011;2434;48.486;7.964;2024-02-26T04:14:36;3.20;;;1.10;;
4839;SDS011;2434;48.486;7.964;2024-02-26T04:17:04;1.80;;;0.83;;
4839;SDS011;2434;48.486;7.964;2024-02-26T04:19:32;1.67;;;0.77;;
4839;SDS011;2434;48.486;7.964;2024-02-26T04:22:01;2.57;;;1.10;;
4839;SDS011;2434;48.486;7.964;2024-02-26T04:24:29;1.87;;;1.00;;
4839;SDS011;2434;48.486;7.964;2024-02-26T04:26:57;1.47;;;0.70;;
4839;SDS011;2434;48.486;7.964;2024-02-26T04:29:25;2.27;;;0.93;;
4839;SDS011;2434;48.486;7.964;2024-02-26T04:31:53;1.73;;;0.83;;
4839;SDS011;2434;48.486;7.964;2024-02-26T04:34:21;5.73;;;0.97;;
4839;SDS011;2434;48.486;7.964;2024-02-26T04:36:49;2.30;;;0.90;;
4839;SDS011;2434;48.486;7.964;2024-02-26T04:39:19;1.60;;;0.80;;
4839;SDS011;2434;48.486;7.964;2024-02-26T04:41:47;3.87;;;1.37;;
4839;SDS011;2434;48.486;7.964;2024-02-26T04:44:15;2.13;;;1.00;;
4839;SDS011;2434;48.486;7.964;2024-02-26T04:46:43;1.97;;;0.90;;
4839;SDS011;2434;48.486;7.964;2024-02-26T04:49:11;1.90;;;0.80;;
4839;SDS011;2434;48.486;7.964;2024-02-26T04:51:39;1.73;;;0.70;;
4839;SDS011;2434;48.486;7.964;2024-02-26T04:54:07;3.00;;;1.17;;
4839;SDS011;2434;48.486;7.964;2024-02-26T04:56:36;3.13;;;1.00;;
4839;SDS011;2434;48.486;7.964;2024-02-26T04:59:04;2.30;;;1.03;;
4839;SDS011;2434;48.486;7.964;2024-02-26T05:01:32;3.80;;;1.47;;
4839;SDS011;2434;48.486;7.964;2024-02-26T05:04:01;5.33;;;1.10;;
4839;SDS011;2434;48.486;7.964;2024-02-26T05:06:29;2.80;;;1.20;;
4839;SDS011;2434;48.486;7.964;2024-02-26T05:08:57;2.67;;;1.30;;
4839;SDS011;2434;48.486;7.964;2024-02-26T05:11:26;2.13;;;1.20;;
4839;SDS011;2434;48.486;7.964;2024-02-26T05:13:55;2.10;;;1.10;;
4839;SDS011;2434;48.486;7.964;2024-02-26T05:16:23;3.40;;;0.90;;
4839;SDS011;2434;48.486;7.964;2024-02-26T05:18:53;4.33;;;1.53;;
4839;SDS011;2434;48.486;7.964;2024-02-26T05:21:22;2.70;;;1.07;;
4839;SDS011;2434;48.486;7.964;2024-02-26T05:23:50;2.10;;;0.90;;
4839;SDS011;2434;48.486;7.964;2024-02-26T05:26:19;3.20;;;1.10;;
4839;SDS011;2434;48.486;7.964;2024-02-26T05:28:47;2.47;;;1.07;;
4839;SDS011;2434;48.486;7.964;2024-02-26T05:31:18;3.23;;;1.37;;
4839;SDS011;2434;48.486;7.964;2024-02-26T05:33:46;2.27;;;1.20;;
4839;SDS011;2434;48.486;7.964;2024-02-26T05:36:17;2.50;;;1.20;;
4839;SDS011;2434;48.486;7.964;2024-02-26T05:38:47;2.33;;;1.40;;
4839;SDS011;2434;48.486;7.964;2024-02-26T05:41:16;2.40;;;1.50;;
4839;SDS011;2434;48.486;7.964;2024-02-26T05:43:49;2.40;;;1.50;;
4839;SDS011;2434;48.486;7.964;2024-02-26T05:46:19;3.43;;;1.53;;
4839;SDS011;2434;48.486;7.964;2024-02-26T05:48:48;2.47;;;1.30;;
4839;SDS011;2434;48.486;7.964;2024-02-26T05:51:17;2.80;;;1.50;;
4839;SDS011;2434;48.486;7.964;2024-02-26T05:53:45;3.53;;;1.70;;
4839;SDS011;2434;48.486;7.964;2024-02-26T05:56:21;2.80;;;1.47;;
4839;SDS011;2434;48.486;7.964;2024-02-26T05:58:49;4.47;;;1.83;;
4839;SDS011;2434;48.486;7.964;2024-02-26T06:01:20;2.90;;;1.53;;
4839;SDS011;2434;48.486;7.964;2024-02-26T06:03:48;2.97;;;1.50;;
4839;SDS011;2434;48.486;7.964;2024-02-26T06:06:16;5.30;;;2.57;;
4839;SDS011;2434;48.486;7.964;2024-02-26T06:08:45;4.10;;;1.60;;
4839;SDS011;2434;48.486;7.964;2024-02-26T06:11:13;6.70;;;3.70;;
4839;SDS011;2434;48.486;7.964;2024-02-26T06:13:41;5.07;;;3.10;;
4839;SDS011;2434;48.486;7.964;2024-02-26T06:16:09;3.40;;;2.30;;
4839;SDS011;2434;48.486;7.964;2024-02-26T06:18:38;2.30;;;1.30;;
4839;SDS011;2434;48.486;7.964;2024-02-26T06:21:08;3.20;;;1.30;;
4839;SDS011;2434;48.486;7.964;2024-02-26T06:23:37;2.00;;;1.03;;
4839;SDS011;2434;48.486;7.964;2024-02-26T06:26:06;5.73;;;1.37;;
4839;SDS011;2434;48.486;7.964;2024-02-26T06:28:34;6.53;;;3.33;;
4839;SDS011;2434;48.486;7.964;2024-02-26T06:31:02;25.80;;;11.80;;
4839;SDS011;2434;48.486;7.964;2024-02-26T06:33:32;11.43;;;6.20;;
4839;SDS011;2434;48.486;7.964;2024-02-26T06:36:02;24.60;;;10.20;;
4839;SDS011;2434;48.486;7.964;2024-02-26T06:38:31;44.20;;;17.73;;
4839;SDS011;2434;48.486;7.964;2024-02-26T06:40:59;37.63;;;17.07;;
4839;SDS011;2434;48.486;7.964;2024-02-26T06:43:29;29.97;;;13.67;;
4839;SDS011;2434;48.486;7.964;2024-02-26T06:45:57;43.07;;;17.80;;
4839;SDS011;2434;48.486;7.964;2024-02-26T06:48:25;14.70;;;7.10;;
4839;SDS011;2434;48.486;7.964;2024-02-26T06:50:54;11.30;;;5.40;;
4839;SDS011;2434;48.486;7.964;2024-02-26T06:53:23;7.17;;;3.50;;
4839;SDS011;2434;48.486;7.964;2024-02-26T06:55:52;7.63;;;3.83;;
4839;SDS011;2434;48.486;7.964;2024-02-26T06:58:20;7.00;;;3.60;;
4839;SDS011;2434;48.486;7.964;2024-02-26T07:00:48;3.50;;;1.77;;
4839;SDS011;2434;48.486;7.964;2024-02-26T07:03:16;2.90;;;1.27;;
4839;SDS011;2434;48.486;7.964;2024-02-26T07:05:44;1.70;;;0.90;;
4839;SDS011;2434;48.486;7.964;2024-02-26T07:08:12;4.30;;;1.27;;
4839;SDS011;2434;48.486;7.964;2024-02-26T07:10:42;4.00;;;1.43;;
4839;SDS011;2434;48.486;7.964;2024-02-26T07:13:10;3.73;;;1.37;;
4839;SDS011;2434;48.486;7.964;2024-02-26T07:15:38;2.60;;;1.13;;
4839;SDS011;2434;48.486;7.964;2024-02-26T07:18:06;2.20;;;1.20;;
4839;SDS011;2434;48.486;7.964;2024-02-26T07:20:34;2.00;;;1.17;;
4839;SDS011;2434;48.486;7.964;2024-02-26T07:23:02;2.20;;;1.20;;
4839;SDS011;2434;48.486;7.964;2024-02-26T07:25:31;2.87;;;1.30;;
4839;SDS011;2434;48.486;7.964;2024-02-26T07:28:00;2.97;;;1.50;;
4839;SDS011;2434;48.486;7.964;2024-02-26T07:30:28;4.70;;;1.90;;
4839;SDS011;2434;48.486;7.964;2024-02-26T07:32:57;3.50;;;1.37;;
4839;SDS011;2434;48.486;7.964;2024-02-26T07:35:25;2.90;;;1.77;;
4839;SDS011;2434;48.486;7.964;2024-02-26T07:37:54;4.33;;;1.70;;
4839;SDS011;2434;48.486;7.964;2024-02-26T07:40:22;3.50;;;1.67;;
4839;SDS011;2434;48.486;7.964;2024-02-26T07:42:50;3.03;;;1.70;;
4839;SDS011;2434;48.486;7.964;2024-02-26T07:45:20;3.23;;;1.90;;
4839;SDS011;2434;48.486;7.964;2024-02-26T07:47:48;2.60;;;1.40;;
4839;SDS011;2434;48.486;7.964;2024-02-26T07:50:18;3.13;;;2.03;;
4839;SDS011;2434;48.486;7.964;2024-02-26T07:52:47;2.40;;;1.50;;
4839;SDS011;2434;48.486;7.964;2024-02-26T07:55:18;3.47;;;2.07;;
4839;SDS011;2434;48.486;7.964;2024-02-26T07:57:46;3.20;;;1.20;;
4839;SDS011;2434;48.486;7.964;2024-02-26T08:00:14;2.50;;;1.40;;
4839;SDS011;2434;48.486;7.964;2024-02-26T08:02:45;4.03;;;1.50;;
4839;SDS011;2434;48.486;7.964;2024-02-26T08:05:13;3.27;;;2.00;;
4839;SDS011;2434;48.486;7.964;2024-02-26T08:07:41;6.17;;;2.13;;
4839;SDS011;2434;48.486;7.964;2024-02-26T08:10:09;2.90;;;1.83;;
4839;SDS011;2434;48.486;7.964;2024-02-26T08:12:38;3.90;;;2.60;;
4839;SDS011;2434;48.486;7.964;2024-02-26T08:15:06;3.27;;;2.17;;
4839;SDS011;2434;48.486;7.964;2024-02-26T08:17:35;4.30;;;2.17;;
4839;SDS011;2434;48.486;7.964;2024-02-26T08:20:05;3.87;;;1.73;;
4839;SDS011;2434;48.486;7.964;2024-02-26T08:22:34;3.70;;;1.60;;
4839;SDS011;2434;48.486;7.964;2024-02-26T08:25:03;2.73;;;1.50;;
4839;SDS011;2434;48.486;7.964;2024-02-26T08:27:33;3.63;;;1.50;;
4839;SDS011;2434;48.486;7.964;2024-02-26T08:30:01;4.90;;;2.10;;
4839;SDS011;2434;48.486;7.964;2024-02-26T08:32:29;6.70;;;1.60;;
4839;SDS011;2434;48.486;7.964;2024-02-26T08:34:57;3.77;;;2.17;;
4839;SDS011;2434;48.486;7.964;2024-02-26T08:37:27;4.53;;;2.30;;
4839;SDS011;2434;48.486;7.964;2024-02-26T08:39:55;3.20;;;2.10;;
4839;SDS011;2434;48.486;7.964;2024-02-26T08:42:27;5.50;;;2.00;;
4839;SDS011;2434;48.486;7.964;2024-02-26T08:44:55;3.07;;;1.80;;
4839;SDS011;2434;48.486;7.964;2024-02-26T08:47:26;4.20;;;1.70;;
4839;SDS011;2434;48.486;7.964;2024-02-26T08:49:54;4.33;;;1.70;;
4839;SDS011;2434;48.486;7.964;2024-02-26T08:52:22;5.17;;;1.83;;
4839;SDS011;2434;48.486;7.964;2024-02-26T08:54:52;2.97;;;1.73;;
4839;SDS011;2434;48.486;7.964;2024-02-26T08:57:20;4.30;;;1.77;;
4839;SDS011;2434;48.486;7.964;2024-02-26T08:59:48;4.60;;;1.70;;
4839;SDS011;2434;48.486;7.964;2024-02-26T09:02:16;3.33;;;1.70;;
4839;SDS011;2434;48.486;7.964;2024-02-26T09:04:46;4.70;;;2.00;;
4839;SDS011;2434;48.486;7.964;2024-02-26T09:07:14;5.60;;;1.80;;
4839;SDS011;2434;48.486;7.964;2024-02-26T09:09:42;3.13;;;1.70;;
4839;SDS011;2434;48.486;7.964;2024-02-26T09:12:11;2.67;;;1.73;;
4839;SDS011;2434;48.486;7.964;2024-02-26T09:14:40;4.00;;;1.93;;
4839;SDS011;2434;48.486;7.964;2024-02-26T09:17:08;4.10;;;2.00;;
4839;SDS011;2434;48.486;7.964;2024-02-26T09:19:36;4.47;;;2.10;;
4839;SDS011;2434;48.486;7.964;2024-02-26T09:22:04;5.37;;;2.40;;
4839;SDS011;2434;48.486;7.964;2024-02-26T09:24:33;5.63;;;2.00;;
4839;SDS011;2434;48.486;7.964;2024-02-26T09:27:01;5.87;;;2.10;;
4839;SDS011;2434;48.486;7.964;2024-02-26T09:29:31;4.83;;;2.53;;
4839;SDS011;2434;48.486;7.964;2024-02-26T09:31:59;5.50;;;3.43;;
4839;SDS011;2434;48.486;7.964;2024-02-26T09:34:27;7.00;;;4.23;;
4839;SDS011;2434;48.486;7.964;2024-02-26T09:36:55;8.57;;;4.10;;
4839;SDS011;2434;48.486;7.964;2024-02-26T09:39:37;8.30;;;4.83;;
4839;SDS011;2434;48.486;7.964;2024-02-26T09:42:06;8.23;;;4.60;;
4839;SDS011;2434;48.486;7.964;2024-02-26T09:44:38;5.67;;;3.10;;
4839;SDS011;2434;48.486;7.964;2024-02-26T09:47:08;5.10;;;2.90;;
4839;SDS011;2434;48.486;7.964;2024-02-26T09:49:39;6.30;;;2.50;;
4839;SDS011;2434;48.486;7.964;2024-02-26T09:52:08;3.07;;;1.77;;
4839;SDS011;2434;48.486;7.964;2024-02-26T09:54:36;7.27;;;2.50;;
4839;SDS011;2434;48.486;7.964;2024-02-26T09:57:05;3.60;;;2.10;;
4839;SDS011;2434;48.486;7.964;2024-02-26T09:59:43;7.23;;;2.40;;
4839;SDS011;2434;48.486;7.964;2024-02-26T10:02:11;4.27;;;2.13;;
4839;SDS011;2434;48.486;7.964;2024-02-26T10:04:40;6.53;;;2.87;;
4839;SDS011;2434;48.486;7.964;2024-02-26T10:07:16;3.43;;;1.93;;
4839;SDS011;2434;48.486;7.964;2024-02-26T10:09:44;5.00;;;2.10;;
4839;SDS011;2434;48.486;7.964;2024-02-26T10:12:12;3.40;;;1.83;;
4839;SDS011;2434;48.486;7.964;2024-02-26T10:14:43;3.17;;;1.70;;
4839;SDS011;2434;48.486;7.964;2024-02-26T10:17:11;4.50;;;2.40;;
4839;SDS011;2434;48.486;7.964;2024-02-26T10:19:39;3.83;;;2.07;;
4839;SDS011;2434;48.486;7.964;2024-02-26T10:22:07;3.30;;;1.73;;
4839;SDS011;2434;48.486;7.964;2024-02-26T10:24:36;3.20;;;1.77;;
4839;SDS011;2434;48.486;7.964;2024-02-26T10:27:04;4.60;;;2.00;;
4839;SDS011;2434;48.486;7.964;2024-02-26T10:29:32;3.00;;;2.07;;
4839;SDS011;2434;48.486;7.964;2024-02-26T10:32:03;4.60;;;2.10;;
4839;SDS011;2434;48.486;7.964;2024-02-26T10:34:32;3.87;;;2.23;;
4839;SDS011;2434;48.486;7.964;2024-02-26T10:37:04;3.57;;;1.57;;
4839;SDS011;2434;48.486;7.964;2024-02-26T10:39:32;5.20;;;1.97;;
4839;SDS011;2434;48.486;7.964;2024-02-26T10:42:03;3.13;;;1.67;;
4839;SDS011;2434;48.486;7.964;2024-02-26T10:44:36;4.90;;;2.30;;
4839;SDS011;2434;48.486;7.964;2024-02-26T10:47:08;3.43;;;2.07;;
4839;SDS011;2434;48.486;7.964;2024-02-26T10:49:36;5.13;;;2.30;;
4839;SDS011;2434;48.486;7.964;2024-02-26T10:52:05;4.30;;;2.77;;
4839;SDS011;2434;48.486;7.964;2024-02-26T10:54:34;3.57;;;2.30;;
4839;SDS011;2434;48.486;7.964;2024-02-26T10:57:05;5.00;;;3.30;;
4839;SDS011;2434;48.486;7.964;2024-02-26T10:59:33;8.33;;;2.80;;
4839;SDS011;2434;48.486;7.964;2024-02-26T11:02:03;6.33;;;2.90;;
4839;SDS011;2434;48.486;7.964;2024-02-26T11:04:33;4.57;;;2.77;;
4839;SDS011;2434;48.486;7.964;2024-02-26T11:07:02;4.50;;;2.77;;
4839;SDS011;2434;48.486;7.964;2024-02-26T11:09:34;5.10;;;2.30;;
4839;SDS011;2434;48.486;7.964;2024-02-26T11:12:03;7.00;;;2.63;;
4839;SDS011;2434;48.486;7.964;2024-02-26T11:14:36;5.17;;;2.80;;
4839;SDS011;2434;48.486;7.964;2024-02-26T11:17:07;4.23;;;2.63;;
4839;SDS011;2434;48.486;7.964;2024-02-26T11:19:38;4.57;;;2.20;;
4839;SDS011;2434;48.486;7.964;2024-02-26T11:22:08;6.43;;;2.73;;
4839;SDS011;2434;48.486;7.964;2024-02-26T11:24:49;3.40;;;2.30;;
4839;SDS011;2434;48.486;7.964;2024-02-26T11:27:18;4.27;;;2.20;;
4839;SDS011;2434;48.486;7.964;2024-02-26T11:29:50;3.50;;;2.40;;
4839;SDS011;2434;48.486;7.964;2024-02-26T11:32:19;4.53;;;2.27;;
4839;SDS011;2434;48.486;7.964;2024-02-26T11:34:49;3.50;;;2.30;;
4839;SDS011;2434;48.486;7.964;2024-02-26T11:37:17;3.00;;;1.80;;
4839;SDS011;2434;48.486;7.964;2024-02-26T11:39:46;3.33;;;1.97;;
4839;SDS011;2434;48.486;7.964;2024-02-26T11:42:15;4.00;;;2.30;;
4839;SDS011;2434;48.486;7.964;2024-02-26T11:44:44;3.40;;;1.93;;
4839;SDS011;2434;48.486;7.964;2024-02-26T11:47:13;7.23;;;2.40;;
4839;SDS011;2434;48.486;7.964;2024-02-26T11:49:45;3.20;;;2.07;;
4839;SDS011;2434;48.486;7.964;2024-02-26T11:52:15;3.27;;;1.90;;
4839;SDS011;2434;48.486;7.964;2024-02-26T11:54:44;3.50;;;1.90;;
4839;SDS011;2434;48.486;7.964;2024-02-26T11:57:20;4.40;;;2.00;;
4839;SDS011;2434;48.486;7.964;2024-02-26T11:59:49;4.03;;;1.90;;
4839;SDS011;2434;48.486;7.964;2024-02-26T12:05:09;3.37;;;2.00;;
4839;SDS011;2434;48.486;7.964;2024-02-26T12:07:42;3.50;;;1.90;;
4839;SDS011;2434;48.486;7.964;2024-02-26T12:10:15;3.50;;;1.93;;
4839;SDS011;2434;48.486;7.964;2024-02-26T12:12:54;4.83;;;1.90;;
4839;SDS011;2434;48.486;7.964;2024-02-26T12:15:33;3.43;;;1.60;;
4839;SDS011;2434;48.486;7.964;2024-02-26T12:18:04;3.10;;;1.60;;
4839;SDS011;2434;48.486;7.964;2024-02-26T12:20:34;4.50;;;2.17;;
4839;SDS011;2434;48.486;7.964;2024-02-26T12:23:04;2.90;;;1.60;;
4839;SDS011;2434;48.486;7.964;2024-02-26T12:25:32;2.30;;;1.60;;
4839;SDS011;2434;48.486;7.964;2024-02-26T12:28:00;2.60;;;1.60;;
4839;SDS011;2434;48.486;7.964;2024-02-26T12:30:29;3.87;;;1.97;;
4839;SDS011;2434;48.486;7.964;2024-02-26T12:32:59;4.07;;;1.87;;
4839;SDS011;2434;48.486;7.964;2024-02-26T12:35:29;2.37;;;1.37;;
4839;SDS011;2434;48.486;7.964;2024-02-26T12:37:58;2.80;;;1.53;;
4839;SDS011;2434;48.486;7.964;2024-02-26T12:40:28;2.30;;;1.27;;
4839;SDS011;2434;48.486;7.964;2024-02-26T12:42:56;1.70;;;0.80;;
4839;SDS011;2434;48.486;7.964;2024-02-26T12:45:25;2.17;;;0.90;;
4839;SDS011;2434;48.486;7.964;2024-02-26T12:47:54;2.47;;;1.00;;
4839;SDS011;2434;48.486;7.964;2024-02-26T12:50:23;1.80;;;0.80;;
4839;SDS011;2434;48.486;7.964;2024-02-26T12:52:52;3.53;;;1.43;;
4839;SDS011;2434;48.486;7.964;2024-02-26T12:55:21;3.73;;;1.43;;
4839;SDS011;2434;48.486;7.964;2024-02-26T12:57:50;3.80;;;1.60;;
4839;SDS011;2434;48.486;7.964;2024-02-26T13:00:20;5.00;;;2.10;;
4839;SDS011;2434;48.486;7.964;2024-02-26T13:02:51;5.70;;;2.00;;
4839;SDS011;2434;48.486;7.964;2024-02-26T13:05:21;4.53;;;1.77;;
4839;SDS011;2434;48.486;7.964;2024-02-26T13:07:50;3.40;;;1.50;;
4839;SDS011;2434;48.486;7.964;2024-02-26T13:10:19;2.67;;;1.43;;
4839;SDS011;2434;48.486;7.964;2024-02-26T13:12:48;5.90;;;1.83;;
4839;SDS011;2434;48.486;7.964;2024-02-26T13:15:19;2.97;;;1.10;;
4839;SDS011;2434;48.486;7.964;2024-02-26T13:17:48;2.90;;;1.37;;
4839;SDS011;2434;48.486;7.964;2024-02-26T13:20:25;2.93;;;1.33;;
4839;SDS011;2434;48.486;7.964;2024-02-26T13:22:59;3.30;;;1.70;;
4839;SDS011;2434;48.486;7.964;2024-02-26T13:25:28;2.93;;;1.60;;
4839;SDS011;2434;48.486;7.964;2024-02-26T13:28:05;7.20;;;1.80;;
4839;SDS011;2434;48.486;7.964;2024-02-26T13:30:36;2.93;;;1.47;;
4839;SDS011;2434;48.486;7.964;2024-02-26T13:33:07;2.80;;;1.50;;
4839;SDS011;2434;48.486;7.964;2024-02-26T13:35:38;2.90;;;1.53;;
4839;SDS011;2434;48.486;7.964;2024-02-26T13:38:06;2.90;;;1.60;;
4839;SDS011;2434;48.486;7.964;2024-02-26T13:40:34;3.80;;;1.90;;
4839;SDS011;2434;48.486;7.964;2024-02-26T13:43:03;2.50;;;1.50;;
4839;SDS011;2434;48.486;7.964;2024-02-26T13:45:33;4.77;;;1.93;;
4839;SDS011;2434;48.486;7.964;2024-02-26T13:48:04;6.80;;;2.00;;
4839;SDS011;2434;48.486;7.964;2024-02-26T13:50:34;6.33;;;1.97;;
4839;SDS011;2434;48.486;7.964;2024-02-26T13:53:02;3.20;;;1.67;;
4839;SDS011;2434;48.486;7.964;2024-02-26T13:55:30;4.43;;;1.70;;
4839;SDS011;2434;48.486;7.964;2024-02-26T13:57:59;3.00;;;1.53;;
4839;SDS011;2434;48.486;7.964;2024-02-26T14:00:28;3.50;;;2.07;;
4839;SDS011;2434;48.486;7.964;2024-02-26T14:02:59;3.53;;;1.23;;
4839;SDS011;2434;48.486;7.964;2024-02-26T14:05:28;3.80;;;1.67;;
4839;SDS011;2434;48.486;7.964;2024-02-26T14:07:56;1.87;;;0.93;;
4839;SDS011;2434;48.486;7.964;2024-02-26T14:10:24;2.23;;;1.30;;
4839;SDS011;2434;48.486;7.964;2024-02-26T14:12:53;2.37;;;1.10;;
4839;SDS011;2434;48.486;7.964;2024-02-26T14:15:20;4.50;;;1.40;;
4839;SDS011;2434;48.486;7.964;2024-02-26T14:17:51;6.47;;;1.30;;
4839;SDS011;2434;48.486;7.964;2024-02-26T14:20:24;2.50;;;1.33;;
4839;SDS011;2434;48.486;7.964;2024-02-26T14:22:53;3.03;;;1.57;;
4839;SDS011;2434;48.486;7.964;2024-02-26T14:25:21;2.77;;;1.50;;
4839;SDS011;2434;48.486;7.964;2024-02-26T14:27:52;5.27;;;1.33;;
4839;SDS011;2434;48.486;7.964;2024-02-26T14:30:20;3.00;;;1.00;;
4839;SDS011;2434;48.486;7.964;2024-02-26T14:32:48;2.93;;;1.53;;
4839;SDS011;2434;48.486;7.964;2024-02-26T14:35:16;3.80;;;1.10;;
4839;SDS011;2434;48.486;7.964;2024-02-26T14:37:46;3.40;;;1.40;;
4839;SDS011;2434;48.486;7.964;2024-02-26T14:40:15;3.10;;;1.40;;
4839;SDS011;2434;48.486;7.964;2024-02-26T14:42:45;3.20;;;1.60;;
4839;SDS011;2434;48.486;7.964;2024-02-26T14:45:13;3.77;;;1.60;;
4839;SDS011;2434;48.486;7.964;2024-02-26T14:47:42;2.27;;;1.07;;
4839;SDS011;2434;48.486;7.964;2024-02-26T14:50:10;2.00;;;1.20;;
4839;SDS011;2434;48.486;7.964;2024-02-26T14:52:38;2.60;;;1.10;;
4839;SDS011;2434;48.486;7.964;2024-02-26T14:55:08;3.20;;;1.43;;
4839;SDS011;2434;48.486;7.964;2024-02-26T14:57:36;7.70;;;1.67;;
4839;SDS011;2434;48.486;7.964;2024-02-26T15:00:05;3.03;;;1.20;;
4839;SDS011;2434;48.486;7.964;2024-02-26T15:02:34;2.37;;;1.37;;
4839;SDS011;2434;48.486;7.964;2024-02-26T15:05:02;2.67;;;1.23;;
4839;SDS011;2434;48.486;7.964;2024-02-26T15:07:34;2.60;;;1.37;;
4839;SDS011;2434;48.486;7.964;2024-02-26T15:10:03;2.70;;;1.30;;
4839;SDS011;2434;48.486;7.964;2024-02-26T15:12:32;3.80;;;1.10;;
4839;SDS011;2434;48.486;7.964;2024-02-26T15:15:00;5.57;;;1.23;;
4839;SDS011;2434;48.486;7.964;2024-02-26T15:17:28;3.40;;;1.23;;
4839;SDS011;2434;48.486;7.964;2024-02-26T15:19:58;3.20;;;1.17;;
4839;SDS011;2434;48.486;7.964;2024-02-26T15:22:27;1.70;;;0.80;;
4839;SDS011;2434;48.486;7.964;2024-02-26T15:24:56;1.83;;;0.83;;
4839;SDS011;2434;48.486;7.964;2024-02-26T15:27:24;4.60;;;1.00;;
4839;SDS011;2434;48.486;7.964;2024-02-26T15:29:54;3.70;;;1.43;;